createdAt,value
2017-04-19T00:00:01.009Z,0
2017-04-19T00:10:15.692Z,0
2017-04-19T00:20:30.213Z,0
2017-04-19T00:30:44.045Z,0
2017-04-19T00:40:59.402Z,0
2017-04-19T00:51:14.703Z,0
2017-04-19T01:01:28.459Z,0
2017-04-19T01:11:43.809Z,0
2017-04-19T01:21:59.373Z,0
2017-04-19T01:32:14.756Z,0
2017-04-19T01:42:29.385Z,0
2017-04-19T01:52:43.282Z,0
2017-04-19T02:02:57.181Z,0
2017-04-19T02:13:11.920Z,0
2017-04-19T02:23:25.663Z,0
2017-04-19T02:33:39.349Z,0
2017-04-19T02:43:53.711Z,0
2017-04-19T02:54:08.778Z,0
2017-04-19T03:04:23.549Z,0
2017-04-19T03:14:39.052Z,0
2017-04-19T03:24:54.529Z,0
2017-04-19T03:35:09.510Z,0
2017-04-19T03:45:23.382Z,0
2017-04-19T03:55:38.826Z,4
2017-04-19T04:05:52.598Z,36
2017-04-19T04:16:07.164Z,152
2017-04-19T04:26:22.303Z,440
2017-04-19T04:36:36.054Z,940
2017-04-19T04:46:51.341Z,1596
2017-04-19T04:57:06.158Z,2228
2017-04-19T05:07:20.673Z,2832
2017-04-19T05:17:36.212Z,3408
2017-04-19T05:27:50.274Z,3924
2017-04-19T05:38:04.695Z,4544
2017-04-19T05:48:20.193Z,6040
2017-04-19T05:58:33.898Z,6492
2017-04-19T06:08:47.932Z,6536
2017-04-19T06:19:03.174Z,7812
2017-04-19T06:29:17.768Z,10332
2017-04-19T06:39:33.431Z,16928
2017-04-19T06:49:47.490Z,8636
2017-04-19T07:00:02.480Z,12596
2017-04-19T07:10:18.049Z,29632
2017-04-19T07:20:32.935Z,30144
2017-04-19T07:30:48.565Z,43456
2017-04-19T07:41:03.233Z,42528
2017-04-19T07:51:17.168Z,10800
2017-04-19T08:01:32.356Z,21952
2017-04-19T08:11:47.270Z,50976
2017-04-19T08:22:01.181Z,54848
2017-04-19T08:32:16.238Z,62464
2017-04-19T08:42:30.729Z,61088
2017-04-19T08:52:45.384Z,60448
2017-04-19T09:03:00.313Z,76992
2017-04-19T09:13:15.237Z,17796
2017-04-19T09:23:30.745Z,80832
2017-04-19T09:33:46.315Z,83360
2017-04-19T09:44:01.779Z,23680
2017-04-19T09:54:16.530Z,29344
2017-04-19T10:04:30.991Z,26336
2017-04-19T10:14:45.721Z,98048
2017-04-19T10:25:01.492Z,93120
2017-04-19T10:35:17.220Z,94048
2017-04-19T10:45:32.379Z,105568
2017-04-19T10:55:47.431Z,108000
2017-04-19T11:06:01.316Z,38144
2017-04-19T11:16:16.670Z,29376
2017-04-19T11:26:31.744Z,71136
2017-04-19T11:36:47.354Z,29888
2017-04-19T11:47:02.927Z,16448
2017-04-19T11:57:18.099Z,16800
2017-04-19T12:07:33.073Z,27040
2017-04-19T12:17:47.465Z,73856
2017-04-19T12:28:01.602Z,27488
2017-04-19T12:38:16.223Z,40224
2017-04-19T12:48:31.926Z,35456
2017-04-19T12:58:47.032Z,48832
2017-04-19T13:09:01.847Z,29728
2017-04-19T13:19:16.247Z,31584
2017-04-19T13:29:31.172Z,39552
2017-04-19T13:39:45.022Z,19136
2017-04-19T13:49:59.082Z,18336
2017-04-19T14:00:13.797Z,20928
2017-04-19T14:10:29.396Z,15384
2017-04-19T14:20:43.965Z,78336
2017-04-19T14:30:59.538Z,50528
2017-04-19T14:41:13.522Z,11760
2017-04-19T14:51:28.403Z,19392
2017-04-19T15:01:43.906Z,20096
2017-04-19T15:11:57.844Z,25088
2017-04-19T15:22:13.075Z,36384
2017-04-19T15:32:26.955Z,10276
2017-04-19T15:42:42.673Z,9972
2017-04-19T15:52:56.906Z,29472
2017-04-19T16:03:11.841Z,24448
2017-04-19T16:13:27.313Z,9068
2017-04-19T16:23:42.374Z,6176
2017-04-19T16:33:56.420Z,8072
2017-04-19T16:44:10.254Z,9284
2017-04-19T16:54:25.011Z,8648
2017-04-19T17:04:40.534Z,7052
2017-04-19T17:14:55.204Z,5904
2017-04-19T17:25:09.869Z,5244
2017-04-19T17:35:25.101Z,4492
2017-04-19T17:45:40.554Z,3740
2017-04-19T17:55:55.296Z,2628
2017-04-19T18:06:09.624Z,1668
2017-04-19T18:16:24.303Z,1032
2017-04-19T18:26:38.303Z,588
2017-04-19T18:36:53.381Z,204
2017-04-19T18:47:08.094Z,52
2017-04-19T18:57:23.148Z,12
2017-04-19T19:07:38.783Z,4
2017-04-19T19:17:53.551Z,0
2017-04-19T19:28:08.614Z,0
2017-04-19T19:38:22.613Z,0
2017-04-19T19:48:36.466Z,0
2017-04-19T19:58:51.522Z,0
2017-04-19T20:09:05.972Z,0
2017-04-19T20:19:19.893Z,0
2017-04-19T20:29:33.578Z,0
2017-04-19T20:39:48.453Z,0
2017-04-19T20:50:02.642Z,0
2017-04-19T21:00:17.517Z,0
2017-04-19T21:10:32.330Z,0
2017-04-19T21:20:47.219Z,0
2017-04-19T21:31:00.776Z,0
2017-04-19T21:41:14.460Z,0
2017-04-19T21:51:30.037Z,0
2017-04-19T22:01:45.668Z,0
2017-04-19T22:11:59.446Z,0
2017-04-19T22:22:13.407Z,0
2017-04-19T22:32:28.990Z,0
2017-04-19T22:42:43.126Z,0
2017-04-19T22:52:58.444Z,0
2017-04-19T23:03:12.811Z,0
2017-04-19T23:13:27.389Z,0
2017-04-19T23:23:41.736Z,0
2017-04-19T23:33:55.474Z,0
2017-04-19T23:44:09.525Z,0
2017-04-19T23:54:24.437Z,0
